Time;durP1;ratioP1;P1;durP2;ratioP2;P2;SDS_P1;SDS_P2;PMS_P1;PMS_P2;Temp;Humidity;BMP_temperature;BMP_pressure;BME280_temperature;BME280_humidity;BME280_pressure;Samples;Min_cycle;Max_cycle;Signal;HPM_P1;HPM_P2
2023/01/04 00:01:33;;;;;;;15.80;13.70;;;6.10;99.90;;;;;;5050673;28;20556;-50
2023/01/04 00:04:00;;;;;;;16.53;13.40;;;6.00;99.90;;;;;;5049323;28;20497;-49
2023/01/04 00:06:27;;;;;;;15.50;13.30;;;5.90;99.90;;;;;;5048842;28;20511;-51
2023/01/04 00:08:54;;;;;;;17.00;13.40;;;5.80;99.90;;;;;;5049622;28;20469;-48
2023/01/04 00:11:23;;;;;;;21.70;16.10;;;5.70;99.90;;;;;;5049060;28;20473;-51
2023/01/04 00:13:52;;;;;;;16.57;14.57;;;5.80;99.90;;;;;;5048428;28;20548;-49
2023/01/04 00:16:22;;;;;;;18.83;15.10;;;5.80;99.90;;;;;;5048767;28;20481;-50
2023/01/04 00:18:50;;;;;;;19.30;16.30;;;5.80;99.90;;;;;;5049376;28;20488;-48
2023/01/04 00:21:18;;;;;;;17.50;15.70;;;5.80;99.90;;;;;;5050683;28;20556;-49
2023/01/04 00:23:46;;;;;;;16.33;14.63;;;5.80;99.90;;;;;;5049932;28;20900;-48
2023/01/04 00:26:15;;;;;;;17.63;15.73;;;5.90;99.90;;;;;;5049656;28;20480;-49
2023/01/04 00:28:42;;;;;;;15.17;13.63;;;5.90;99.90;;;;;;5050656;28;20472;-49
2023/01/04 00:31:12;;;;;;;18.53;14.60;;;6.00;99.90;;;;;;5050613;28;20484;-49
2023/01/04 00:33:40;;;;;;;16.90;14.00;;;6.20;99.90;;;;;;5049292;28;20474;-48
2023/01/04 00:36:10;;;;;;;17.50;14.90;;;6.20;99.90;;;;;;5050255;28;20961;-48
2023/01/04 00:38:38;;;;;;;16.40;14.77;;;6.20;99.90;;;;;;5048362;28;20480;-48
2023/01/04 00:41:06;;;;;;;19.60;14.50;;;6.00;99.90;;;;;;5050139;28;20947;-48
2023/01/04 00:43:33;;;;;;;15.53;13.30;;;6.10;99.90;;;;;;5049108;28;20477;-48
2023/01/04 00:46:01;;;;;;;17.53;13.80;;;6.10;99.90;;;;;;5049335;28;21018;-48
2023/01/04 00:48:28;;;;;;;19.00;14.83;;;6.10;99.90;;;;;;5048081;28;20445;-49
2023/01/04 00:50:58;;;;;;;17.20;13.80;;;6.00;99.90;;;;;;5048408;28;20446;-50
2023/01/04 00:53:25;;;;;;;14.40;12.90;;;6.00;99.90;;;;;;5047804;28;20453;-48
2023/01/04 00:55:52;;;;;;;18.40;14.43;;;6.10;99.90;;;;;;5048410;28;20469;-48
2023/01/04 00:58:19;;;;;;;15.43;12.87;;;6.10;99.90;;;;;;5047728;28;20484;-49
2023/01/04 01:00:46;;;;;;;19.40;16.17;;;6.10;99.90;;;;;;5049044;28;20530;-48
2023/01/04 01:03:13;;;;;;;18.83;14.50;;;6.10;99.90;;;;;;5049222;28;20568;-49
2023/01/04 01:05:40;;;;;;;18.03;14.40;;;6.10;99.90;;;;;;5049627;28;21006;-50
2023/01/04 01:08:25;;;;;;;17.20;13.87;;;6.10;99.90;;;;;;5050147;28;20477;-49
2023/01/04 01:10:53;;;;;;;19.37;13.33;;;6.20;99.90;;;;;;5049743;28;21027;-49
2023/01/04 01:13:20;;;;;;;17.30;15.37;;;6.10;99.90;;;;;;5048198;28;20469;-49
2023/01/04 01:15:47;;;;;;;17.87;13.83;;;6.10;99.90;;;;;;5048581;28;20536;-48
2023/01/04 01:18:14;;;;;;;15.40;13.10;;;6.00;99.90;;;;;;5047772;28;20887;-45
2023/01/04 01:20:43;;;;;;;15.63;12.37;;;6.00;99.90;;;;;;5048173;28;20537;-48
2023/01/04 01:23:12;;;;;;;15.23;13.63;;;6.10;99.90;;;;;;5047386;28;20485;-50
2023/01/04 01:25:39;;;;;;;14.13;12.10;;;6.10;99.90;;;;;;5047538;28;20505;-46
2023/01/04 01:28:07;;;;;;;17.67;12.97;;;6.10;99.90;;;;;;5047970;28;20481;-49
2023/01/04 01:30:34;;;;;;;13.33;10.80;;;6.10;99.90;;;;;;5048971;28;20547;-48
2023/01/04 01:33:01;;;;;;;13.07;11.70;;;6.00;99.90;;;;;;5048274;28;20474;-49
2023/01/04 01:35:28;;;;;;;12.40;9.90;;;6.00;99.90;;;;;;5049168;28;20473;-48
2023/01/04 01:37:55;;;;;;;10.70;9.07;;;6.20;99.90;;;;;;5048307;28;20477;-48
2023/01/04 01:40:23;;;;;;;10.43;9.30;;;6.20;99.90;;;;;;5048562;28;20532;-48
2023/01/04 01:42:50;;;;;;;10.13;8.30;;;6.00;99.90;;;;;;5048069;28;20516;-48
2023/01/04 01:45:28;;;;;;;10.67;8.57;;;5.90;99.90;;;;;;5047119;28;20457;-48
2023/01/04 01:48:01;;;;;;;12.93;10.10;;;5.90;99.90;;;;;;5048241;28;20473;-48
2023/01/04 01:50:32;;;;;;;10.30;8.73;;;5.90;99.90;;;;;;5047810;28;20489;-52
2023/01/04 01:53:01;;;;;;;10.60;9.50;;;5.90;99.90;;;;;;5047339;28;20430;-49
2023/01/04 01:55:32;;;;;;;11.40;9.10;;;6.00;99.90;;;;;;5047793;28;20497;-49
2023/01/04 01:58:01;;;;;;;11.80;9.37;;;5.90;99.90;;;;;;5049204;28;20877;-49
2023/01/04 02:00:29;;;;;;;14.10;10.83;;;5.70;99.90;;;;;;5049171;28;20472;-51
2023/01/04 02:03:09;;;;;;;14.13;12.03;;;5.70;99.90;;;;;;5048696;28;20558;-48
2023/01/04 02:05:37;;;;;;;16.20;14.50;;;5.40;99.90;;;;;;5052721;28;20540;-49
2023/01/04 02:08:05;;;;;;;14.40;12.90;;;5.50;99.90;;;;;;5053155;28;20529;-49
2023/01/04 02:10:33;;;;;;;17.60;13.87;;;5.60;99.90;;;;;;5052444;28;20445;-48
2023/01/04 02:13:08;;;;;;;17.30;13.50;;;5.60;99.90;;;;;;5052448;28;20525;-48
2023/01/04 02:15:52;;;;;;;15.60;13.17;;;5.60;99.90;;;;;;5052559;28;20503;-48
2023/01/04 02:18:25;;;;;;;14.97;12.30;;;5.60;99.90;;;;;;5052513;28;20949;-48
2023/01/04 02:20:59;;;;;;;14.00;11.07;;;5.70;99.90;;;;;;5052836;28;20488;-49
2023/01/04 02:23:59;;;;;;;16.13;12.97;;;5.70;99.90;;;;;;5051678;28;20523;-48
2023/01/04 02:26:55;;;;;;;13.37;12.00;;;5.80;99.90;;;;;;5016748;28;20529;-51
2023/01/04 02:29:57;;;;;;;14.93;12.10;;;5.70;99.90;;;;;;5050640;28;20541;-50
2023/01/04 02:32:38;;;;;;;10.13;8.30;;;5.80;99.90;;;;;;5046656;28;20746;-52
2023/01/04 02:35:14;;;;;;;5.87;5.37;;;5.90;99.90;;;;;;5050706;28;20511;-48
2023/01/04 02:37:50;;;;;;;5.23;3.80;;;5.90;99.90;;;;;;5050644;28;20540;-49
2023/01/04 02:40:22;;;;;;;6.50;4.80;;;5.90;99.90;;;;;;5031701;28;20546;-51
2023/01/04 02:45:44;;;;;;;14.73;9.80;;;5.70;99.90;;;;;;5032497;28;20496;-48
2023/01/04 02:50:58;;;;;;;4.63;3.80;;;5.80;99.90;;;;;;5052306;28;20436;-48
2023/01/04 02:53:29;;;;;;;3.70;3.40;;;5.80;99.90;;;;;;5051233;28;20706;-48
2023/01/04 02:56:08;;;;;;;4.87;3.87;;;5.60;99.90;;;;;;5042093;28;20491;-48
2023/01/04 02:58:57;;;;;;;6.43;5.33;;;5.50;99.90;;;;;;5030909;28;20800;-48
2023/01/04 03:07:25;;;;;;;6.20;4.90;;;5.50;99.90;;;;;;5029809;28;20640;-48
2023/01/04 03:09:57;;;;;;;8.60;6.30;;;5.40;99.90;;;;;;5031151;28;20524;-50
2023/01/04 03:12:32;;;;;;;8.10;7.30;;;5.30;99.90;;;;;;5037566;28;20524;-48
2023/01/04 03:15:04;;;;;;;9.53;6.47;;;5.40;99.90;;;;;;5050859;28;20484;-51
2023/01/04 03:17:37;;;;;;;6.80;6.10;;;5.50;99.90;;;;;;5051198;28;20524;-49
2023/01/04 03:20:08;;;;;;;7.73;6.30;;;5.50;99.90;;;;;;5051707;28;20516;-48
2023/01/04 03:37:06;;;;;;;3.40;2.67;;;5.50;99.90;;;;;;5050534;28;20483;-48
2023/01/04 03:48:30;;;;;;;2.53;1.60;;;5.50;99.90;;;;;;5051453;28;20440;-48
2023/01/04 03:51:04;;;;;;;2.00;1.80;;;5.30;99.90;;;;;;5051555;28;20441;-48
2023/01/04 03:53:39;;;;;;;3.00;1.97;;;5.20;99.90;;;;;;5050286;28;20441;-48
2023/01/04 03:56:08;;;;;;;3.00;1.70;;;5.10;99.90;;;;;;5051128;28;20476;-48
2023/01/04 03:58:36;;;;;;;2.90;2.07;;;5.10;99.90;;;;;;5050550;28;21009;-48
2023/01/04 04:01:03;;;;;;;2.07;1.87;;;5.30;99.90;;;;;;5050920;28;20477;-48
2023/01/04 04:09:01;;;;;;;5.63;3.50;;;5.30;99.90;;;;;;5051231;28;20420;-48
2023/01/04 04:11:31;;;;;;;7.50;2.90;;;5.30;99.90;;;;;;5050131;28;20537;-48
2023/01/04 04:13:59;;;;;;;7.87;3.60;;;5.40;99.90;;;;;;5049363;28;20553;-49
2023/01/04 04:16:27;;;;;;;2.07;1.70;;;5.40;99.90;;;;;;5049062;28;20486;-48
2023/01/04 04:18:54;;;;;;;3.03;1.77;;;5.40;99.90;;;;;;5049019;28;20528;-49
2023/01/04 04:21:21;;;;;;;2.47;1.40;;;5.40;99.90;;;;;;5048976;28;20473;-48
2023/01/04 04:23:48;;;;;;;2.03;1.30;;;5.40;99.90;;;;;;5047773;28;20580;-50
2023/01/04 04:26:17;;;;;;;1.50;1.10;;;5.30;99.90;;;;;;5047181;28;20480;-48
2023/01/04 04:28:44;;;;;;;1.80;1.23;;;5.40;99.90;;;;;;5049615;28;21013;-48
2023/01/04 04:31:11;;;;;;;2.07;1.60;;;5.40;99.90;;;;;;5050511;28;20477;-50
2023/01/04 04:33:38;;;;;;;2.00;1.50;;;5.30;99.90;;;;;;5049505;28;20541;-48
2023/01/04 04:36:07;;;;;;;2.50;1.90;;;5.20;99.90;;;;;;5050450;28;20448;-48
2023/01/04 04:38:34;;;;;;;2.57;2.33;;;5.20;99.90;;;;;;5048163;28;20888;-50
2023/01/04 04:43:52;;;;;;;2.50;1.83;;;5.10;99.90;;;;;;5049431;28;20513;-48
2023/01/04 04:46:19;;;;;;;2.60;2.00;;;5.30;99.90;;;;;;5048577;28;20819;-48
2023/01/04 04:48:46;;;;;;;2.90;2.60;;;5.30;99.90;;;;;;5048881;28;20469;-51
2023/01/04 04:51:13;;;;;;;2.47;1.80;;;5.20;99.90;;;;;;5048407;28;20825;-48
2023/01/04 04:53:40;;;;;;;1.60;1.50;;;5.30;99.90;;;;;;5047609;28;20536;-48
2023/01/04 04:56:08;;;;;;;1.80;1.33;;;5.30;99.90;;;;;;5048430;28;20876;-48
2023/01/04 04:58:36;;;;;;;1.63;1.50;;;5.40;99.90;;;;;;5048381;28;20438;-49
2023/01/04 05:01:05;;;;;;;1.60;1.40;;;5.20;99.90;;;;;;5048821;28;20527;-48
2023/01/04 05:03:32;;;;;;;2.27;1.00;;;5.20;99.90;;;;;;5048856;28;20560;-51
2023/01/04 05:05:59;;;;;;;1.50;1.07;;;5.30;99.90;;;;;;5049100;28;21062;-48
2023/01/04 05:08:26;;;;;;;1.53;1.10;;;5.30;99.90;;;;;;5048808;28;20491;-46
2023/01/04 05:10:53;;;;;;;2.43;1.57;;;5.40;99.90;;;;;;5049605;28;21182;-48
2023/01/04 05:13:19;;;;;;;3.43;3.00;;;5.30;99.90;;;;;;5047396;28;20529;-49
2023/01/04 05:15:48;;;;;;;3.47;2.27;;;5.20;99.90;;;;;;5052791;28;20442;-49
2023/01/04 05:18:18;;;;;;;3.10;2.13;;;5.20;99.90;;;;;;5065589;28;20539;-49
2023/01/04 05:20:45;;;;;;;2.67;2.40;;;5.20;99.90;;;;;;5047599;28;20537;-48
2023/01/04 05:23:14;;;;;;;2.63;1.93;;;5.20;99.90;;;;;;5048725;28;20565;-51
2023/01/04 05:25:41;;;;;;;1.80;1.50;;;5.30;99.90;;;;;;5040785;28;21013;-49
2023/01/04 05:28:09;;;;;;;2.00;1.60;;;5.40;99.90;;;;;;5057493;28;20535;-48
2023/01/04 05:30:50;;;;;;;2.43;1.80;;;5.30;99.90;;;;;;5055655;28;20473;-50
2023/01/04 05:33:21;;;;;;;1.70;1.50;;;5.20;99.90;;;;;;5034354;28;20443;-48
2023/01/04 05:35:48;;;;;;;3.00;1.80;;;5.00;99.90;;;;;;5046655;28;20460;-48
2023/01/04 05:38:15;;;;;;;1.77;1.37;;;4.80;99.90;;;;;;5048445;28;20858;-45
2023/01/04 05:40:42;;;;;;;1.40;1.07;;;4.80;99.90;;;;;;5051944;28;20545;-50
2023/01/04 05:43:09;;;;;;;2.27;2.07;;;4.80;99.90;;;;;;5052020;28;20552;-48
2023/01/04 05:45:36;;;;;;;2.27;1.50;;;4.70;99.90;;;;;;5060372;28;20525;-49
2023/01/04 05:48:03;;;;;;;2.17;1.60;;;4.70;99.90;;;;;;5058100;28;20470;-48
2023/01/04 05:50:32;;;;;;;1.50;1.40;;;4.80;99.90;;;;;;5065164;28;20520;-48
2023/01/04 05:52:58;;;;;;;1.73;1.37;;;4.80;99.90;;;;;;5053302;28;20438;-48
2023/01/04 05:55:25;;;;;;;2.13;1.67;;;4.90;99.90;;;;;;5053777;28;20492;-48
2023/01/04 05:57:53;;;;;;;1.87;1.20;;;4.90;99.90;;;;;;5052778;28;20533;-48
2023/01/04 06:00:20;;;;;;;2.20;1.07;;;5.00;99.90;;;;;;5056743;28;20483;-50
2023/01/04 06:02:47;;;;;;;1.20;0.90;;;5.10;99.90;;;;;;5053322;28;20524;-49
2023/01/04 06:05:14;;;;;;;1.10;1.00;;;5.10;99.90;;;;;;5044433;28;20994;-44
2023/01/04 06:07:42;;;;;;;1.50;1.07;;;5.00;99.90;;;;;;5050186;28;20523;-51
2023/01/04 06:10:11;;;;;;;4.70;2.97;;;4.90;99.90;;;;;;5050645;28;20899;-48
2023/01/04 06:12:39;;;;;;;1.93;1.73;;;4.70;99.90;;;;;;5051145;28;20525;-48
2023/01/04 06:15:08;;;;;;;1.80;1.40;;;4.40;99.90;;;;;;5063466;28;20554;-49
2023/01/04 06:17:35;;;;;;;2.83;2.07;;;4.30;99.90;;;;;;5050371;28;20476;-47
2023/01/04 06:20:03;;;;;;;3.17;1.60;;;4.40;99.90;;;;;;5055174;28;20908;-49
2023/01/04 06:22:31;;;;;;;6.63;5.10;;;4.50;99.90;;;;;;5049740;28;20930;-48
2023/01/04 06:24:59;;;;;;;4.40;3.53;;;4.60;99.90;;;;;;5048349;28;20497;-50
2023/01/04 06:27:26;;;;;;;2.10;1.90;;;4.70;99.90;;;;;;5051123;28;20945;-49
2023/01/04 06:29:53;;;;;;;2.80;2.13;;;4.60;99.90;;;;;;5052009;28;20891;-47
2023/01/04 06:32:21;;;;;;;1.63;1.37;;;4.50;99.90;;;;;;5052224;28;20437;-48
2023/01/04 06:34:48;;;;;;;2.13;1.63;;;4.30;99.90;;;;;;5050319;28;20998;-48
2023/01/04 06:37:14;;;;;;;2.07;1.70;;;4.30;99.90;;;;;;5049594;28;20873;-46
2023/01/04 06:39:41;;;;;;;4.80;3.50;;;4.10;99.90;;;;;;5051082;28;20528;-48
2023/01/04 06:42:43;;;;;;;3.77;2.40;;;3.90;99.90;;;;;;5051388;28;20535;-48
2023/01/04 06:44:57;;;;;;;3.00;2.13;;;4.00;99.90;;;;;;5049817;28;20476;-48
2023/01/04 06:47:24;;;;;;;3.37;2.57;;;4.00;99.90;;;;;;5050589;28;20538;-50
2023/01/04 06:49:51;;;;;;;4.07;3.00;;;4.00;99.90;;;;;;5050183;28;20484;-50
2023/01/04 06:52:18;;;;;;;2.70;2.40;;;3.90;99.90;;;;;;5051082;28;21014;-49
2023/01/04 06:54:45;;;;;;;4.33;3.93;;;4.00;99.90;;;;;;5051037;28;20557;-48
2023/01/04 06:57:13;;;;;;;3.43;1.97;;;4.20;99.90;;;;;;5052283;28;20968;-47
2023/01/04 06:59:40;;;;;;;4.20;3.80;;;4.20;99.90;;;;;;5052248;28;20477;-49
2023/01/04 07:02:07;;;;;;;4.77;3.87;;;4.00;99.90;;;;;;5051802;28;20526;-48
2023/01/04 07:04:34;;;;;;;2.53;2.13;;;4.00;99.90;;;;;;5050764;28;21060;-48
2023/01/04 07:07:02;;;;;;;4.07;3.63;;;3.90;99.90;;;;;;5052074;28;20522;-48
2023/01/04 07:09:29;;;;;;;2.40;2.20;;;3.80;99.90;;;;;;5051520;28;20472;-49
2023/01/04 07:11:57;;;;;;;1.67;1.43;;;3.90;99.90;;;;;;5051289;28;20524;-49
2023/01/04 07:14:25;;;;;;;2.93;1.70;;;3.80;99.90;;;;;;5049632;28;20463;-48
2023/01/04 07:16:52;;;;;;;1.47;1.23;;;3.70;99.90;;;;;;5050269;28;20541;-50
2023/01/04 07:19:19;;;;;;;1.93;1.67;;;3.60;99.90;;;;;;5050046;28;20941;-48
2023/01/04 07:21:46;;;;;;;2.37;1.90;;;3.70;99.90;;;;;;5050634;28;20534;-48
2023/01/04 07:24:13;;;;;;;1.53;1.30;;;3.70;99.90;;;;;;5049312;28;20545;-48
2023/01/04 07:26:40;;;;;;;3.40;2.80;;;3.80;99.90;;;;;;5049363;28;21056;-51
2023/01/04 07:29:15;;;;;;;2.17;1.70;;;4.00;99.90;;;;;;5051936;28;20524;-48
2023/01/04 07:31:46;;;;;;;1.70;1.60;;;3.80;99.90;;;;;;5051757;28;20993;-48
2023/01/04 07:34:14;;;;;;;1.40;1.30;;;3.90;99.90;;;;;;5051377;28;20503;-49
2023/01/04 07:36:41;;;;;;;2.30;1.70;;;3.90;99.90;;;;;;5051706;28;20478;-49
2023/01/04 07:39:11;;;;;;;2.33;1.83;;;4.00;99.90;;;;;;5049326;28;20534;-48
2023/01/04 07:41:38;;;;;;;1.93;1.63;;;4.00;99.90;;;;;;5051130;28;20887;-47
2023/01/04 07:44:06;;;;;;;1.40;0.90;;;4.00;99.90;;;;;;5050469;28;20570;-48
2023/01/04 07:46:34;;;;;;;1.83;1.40;;;4.00;99.90;;;;;;5051158;28;20957;-48
2023/01/04 07:49:03;;;;;;;2.10;1.90;;;4.00;99.90;;;;;;5051397;28;21003;-51
2023/01/04 07:51:30;;;;;;;2.43;1.77;;;3.90;99.90;;;;;;5050894;28;20524;-49
2023/01/04 07:53:57;;;;;;;1.87;1.70;;;3.70;99.90;;;;;;5050271;28;20495;-47
2023/01/04 07:56:24;;;;;;;2.10;1.87;;;3.50;99.90;;;;;;5050927;28;20468;-48
2023/01/04 07:58:55;;;;;;;3.50;1.80;;;3.40;99.90;;;;;;5051301;28;20484;-48
2023/01/04 08:01:23;;;;;;;1.47;1.37;;;3.30;99.90;;;;;;5049926;28;20447;-48
2023/01/04 08:03:50;;;;;;;1.70;1.50;;;3.40;99.90;;;;;;5050124;28;20570;-47
2023/01/04 08:06:20;;;;;;;1.83;1.73;;;3.40;99.90;;;;;;5050533;28;20976;-48
2023/01/04 08:08:47;;;;;;;3.50;2.60;;;3.40;99.90;;;;;;5050992;28;20521;-48
2023/01/04 08:11:16;;;;;;;2.37;1.83;;;3.50;99.90;;;;;;5050670;28;20486;-44
2023/01/04 08:13:43;;;;;;;2.00;1.73;;;3.70;99.90;;;;;;5050083;28;20544;-47
2023/01/04 08:16:19;;;;;;;1.90;1.30;;;3.60;99.90;;;;;;5051015;28;20594;-47
2023/01/04 08:18:46;;;;;;;2.00;1.50;;;3.50;99.90;;;;;;5050533;28;20443;-47
2023/01/04 08:21:13;;;;;;;1.60;1.23;;;3.30;99.90;;;;;;5051019;28;20487;-48
2023/01/04 08:23:50;;;;;;;2.80;1.30;;;3.00;99.90;;;;;;5148204;27;20625;-46
2023/01/04 08:26:17;;;;;;;1.87;1.30;;;3.30;99.90;;;;;;5148542;27;20534;-48
2023/01/04 08:28:45;;;;;;;2.43;1.30;;;3.20;99.90;;;;;;5149144;27;20474;-48
2023/01/04 08:31:14;;;;;;;4.40;1.37;;;3.10;99.90;;;;;;5148862;27;20883;-48
2023/01/04 08:33:42;;;;;;;2.83;2.13;;;3.30;99.90;;;;;;5149709;27;20463;-48
2023/01/04 08:36:12;;;;;;;2.70;1.80;;;3.00;99.90;;;;;;5149098;27;20441;-48
2023/01/04 08:38:39;;;;;;;3.23;1.97;;;3.10;99.90;;;;;;5146147;27;20455;-48
2023/01/04 08:41:08;;;;;;;2.30;1.87;;;3.20;99.90;;;;;;5148679;27;20935;-49
2023/01/04 08:43:35;;;;;;;3.23;1.80;;;3.20;99.90;;;;;;5147313;27;20556;-51
2023/01/04 08:46:03;;;;;;;2.73;1.77;;;3.40;99.90;;;;;;5148710;27;20439;-48
2023/01/04 08:48:30;;;;;;;2.20;1.60;;;3.60;99.90;;;;;;5148490;27;20538;-49
2023/01/04 08:50:59;;;;;;;1.10;1.00;;;3.50;99.90;;;;;;5148399;27;20491;-48
2023/01/04 08:53:26;;;;;;;1.60;1.50;;;3.60;99.90;;;;;;5147816;27;20477;-49
2023/01/04 08:55:53;;;;;;;2.20;1.80;;;3.50;99.90;;;;;;5147855;27;20534;-48
2023/01/04 08:58:23;;;;;;;2.73;2.27;;;3.30;99.90;;;;;;5148111;27;20477;-48
2023/01/04 09:00:50;;;;;;;3.80;3.30;;;3.30;99.90;;;;;;5148474;27;20511;-49
2023/01/04 09:03:16;;;;;;;3.03;2.70;;;3.00;99.90;;;;;;5147287;27;21027;-47
2023/01/04 09:05:45;;;;;;;3.63;2.83;;;2.90;99.90;;;;;;5148132;27;20466;-47
2023/01/04 09:08:12;;;;;;;2.90;2.50;;;3.00;99.90;;;;;;5148332;27;20962;-47
2023/01/04 09:10:39;;;;;;;2.33;1.87;;;3.30;99.90;;;;;;5147778;27;20950;-48
2023/01/04 09:13:06;;;;;;;2.20;1.47;;;3.30;99.90;;;;;;5147621;27;20504;-48
2023/01/04 09:15:35;;;;;;;1.30;1.20;;;3.10;99.90;;;;;;5147873;27;20460;-48
2023/01/04 09:18:03;;;;;;;2.40;2.20;;;3.10;99.90;;;;;;5148209;27;20471;-48
2023/01/04 09:20:30;;;;;;;1.77;1.67;;;3.10;99.90;;;;;;5147480;27;20503;-48
2023/01/04 09:22:58;;;;;;;2.33;1.93;;;3.00;99.90;;;;;;5146900;27;20932;-50
2023/01/04 09:25:25;;;;;;;2.47;2.27;;;3.20;99.90;;;;;;5147449;27;20464;-48
2023/01/04 09:27:51;;;;;;;3.03;2.73;;;3.20;99.90;;;;;;5148027;27;20867;-49
2023/01/04 09:30:18;;;;;;;5.37;2.93;;;3.30;99.90;;;;;;5147652;27;20464;-48
2023/01/04 09:32:47;;;;;;;3.10;2.67;;;3.40;99.90;;;;;;5147808;27;20521;-48
2023/01/04 09:35:14;;;;;;;2.87;2.57;;;3.30;99.90;;;;;;5132198;27;20490;-46
2023/01/04 09:37:41;;;;;;;2.23;2.00;;;3.30;99.90;;;;;;5131297;27;20494;-49
2023/01/04 09:40:18;;;;;;;2.10;1.90;;;3.20;99.90;;;;;;5133947;27;20574;-48
2023/01/04 09:42:46;;;;;;;2.10;1.33;;;3.30;99.90;;;;;;5134065;27;20907;-48
2023/01/04 09:45:19;;;;;;;2.00;1.40;;;3.40;99.90;;;;;;5132920;27;20541;-50
2023/01/04 09:47:51;;;;;;;2.27;1.40;;;3.50;99.90;;;;;;5133553;27;20449;-48
2023/01/04 09:50:24;;;;;;;1.30;1.00;;;3.50;99.90;;;;;;5133107;27;20545;-48
2023/01/04 09:52:59;;;;;;;1.40;1.10;;;3.50;99.90;;;;;;5133217;27;20989;-45
2023/01/04 09:55:30;;;;;;;1.60;1.30;;;3.40;99.90;;;;;;5132274;27;20493;-49
2023/01/04 09:58:02;;;;;;;4.77;2.87;;;3.60;99.90;;;;;;5133243;27;20519;-49
2023/01/04 10:00:34;;;;;;;3.30;2.60;;;3.50;99.90;;;;;;5133060;27;20943;-49
2023/01/04 10:03:11;;;;;;;5.00;3.20;;;3.50;99.90;;;;;;5133103;27;20566;-48
2023/01/04 10:05:40;;;;;;;2.80;1.90;;;3.60;99.90;;;;;;5132671;27;20491;-49
2023/01/04 10:08:14;;;;;;;16.90;9.80;;;3.70;99.90;;;;;;5133259;27;20439;-49
2023/01/04 10:10:49;;;;;;;7.70;5.73;;;3.90;99.90;;;;;;5133467;27;20573;-48
2023/01/04 10:13:31;;;;;;;4.50;4.10;;;4.10;99.90;;;;;;5132009;27;20449;-50
2023/01/04 10:16:08;;;;;;;4.00;3.60;;;4.30;99.90;;;;;;5133169;27;20485;-50
2023/01/04 10:18:45;;;;;;;3.30;2.80;;;4.20;99.90;;;;;;5111507;27;20487;-48
2023/01/04 10:21:26;;;;;;;4.20;3.60;;;4.50;99.90;;;;;;5112727;27;20498;-48
2023/01/04 10:24:07;;;;;;;2.30;1.93;;;4.90;99.90;;;;;;5111818;28;20560;-48
2023/01/04 10:26:41;;;;;;;1.23;1.13;;;5.10;99.90;;;;;;5111362;28;20805;-48
2023/01/04 10:29:27;;;;;;;1.10;0.80;;;5.30;99.90;;;;;;5112359;27;20528;-48
2023/01/04 10:32:00;;;;;;;0.90;0.60;;;5.30;99.90;;;;;;5112625;28;20517;-48
2023/01/04 10:34:30;;;;;;;2.97;2.60;;;5.20;99.90;;;;;;5109589;27;21069;-49
2023/01/04 10:36:59;;;;;;;4.27;2.50;;;5.10;99.90;;;;;;5132169;27;20970;-49
2023/01/04 10:39:30;;;;;;;3.70;2.13;;;5.30;99.90;;;;;;5131513;27;20516;-49
2023/01/04 10:42:04;;;;;;;2.50;1.80;;;5.40;99.90;;;;;;5133117;27;20446;-48
2023/01/04 10:44:41;;;;;;;3.93;1.50;;;5.40;99.90;;;;;;5130354;27;20487;-49
2023/01/04 10:47:14;;;;;;;3.07;1.50;;;5.30;99.90;;;;;;5131916;27;20517;-50
2023/01/04 10:49:48;;;;;;;1.60;1.10;;;5.40;99.90;;;;;;5121821;27;20450;-48
2023/01/04 10:52:18;;;;;;;1.30;0.93;;;5.50;99.90;;;;;;5111670;28;20465;-46
2023/01/04 10:54:49;;;;;;;1.30;0.93;;;5.60;99.90;;;;;;5110595;28;20885;-50
2023/01/04 10:57:24;;;;;;;1.13;0.83;;;5.60;99.90;;;;;;5111271;28;20463;-48
2023/01/04 10:59:56;;;;;;;1.30;0.90;;;5.70;99.90;;;;;;5111761;28;20474;-48
2023/01/04 11:02:27;;;;;;;2.20;1.13;;;5.80;99.90;;;;;;5111342;28;20457;-48
2023/01/04 11:05:03;;;;;;;1.87;1.47;;;5.80;99.90;;;;;;5110825;28;21010;-48
2023/01/04 11:07:39;;;;;;;1.57;1.10;;;5.90;99.90;;;;;;5115969;27;20442;-49
2023/01/04 11:10:13;;;;;;;1.60;1.27;;;6.20;99.90;;;;;;5110244;28;20485;-48
2023/01/04 11:12:40;;;;;;;2.10;1.30;;;6.40;99.90;;;;;;5115927;27;20469;-47
2023/01/04 11:15:08;;;;;;;1.27;1.03;;;6.40;99.90;;;;;;5120081;27;20542;-48
2023/01/04 11:17:35;;;;;;;2.50;1.10;;;6.30;99.90;;;;;;5118554;27;20514;-49
2023/01/04 11:20:04;;;;;;;1.50;1.10;;;6.50;99.90;;;;;;5120221;27;20473;-49
2023/01/04 11:22:38;;;;;;;1.60;1.50;;;6.50;99.90;;;;;;5120555;27;20439;-48
2023/01/04 11:25:11;;;;;;;1.27;0.93;;;6.50;99.90;;;;;;5119899;27;20482;-48
2023/01/04 11:27:44;;;;;;;1.30;1.00;;;6.50;99.90;;;;;;5118790;27;20475;-48
2023/01/04 11:30:17;;;;;;;1.93;1.63;;;6.60;99.90;;;;;;5118989;27;20435;-48
2023/01/04 11:32:50;;;;;;;1.10;0.97;;;6.60;99.90;;;;;;5118808;27;20518;-48
2023/01/04 11:35:37;;;;;;;1.70;1.17;;;6.70;99.90;;;;;;5116859;27;21019;-49
2023/01/04 11:38:14;;;;;;;1.20;0.90;;;6.80;99.90;;;;;;5116274;27;20951;-48
2023/01/04 11:40:42;;;;;;;1.93;1.00;;;6.90;99.90;;;;;;5118378;27;20504;-50
2023/01/04 11:43:17;;;;;;;1.80;1.40;;;6.80;99.90;;;;;;5117553;27;20496;-48
2023/01/04 11:45:54;;;;;;;1.53;1.10;;;6.80;99.90;;;;;;5116759;27;20442;-50
2023/01/04 11:48:32;;;;;;;1.97;1.70;;;6.90;99.90;;;;;;5109188;28;20523;-48
2023/01/04 11:51:01;;;;;;;3.07;1.20;;;6.90;99.90;;;;;;5110404;28;20519;-48
2023/01/04 11:53:31;;;;;;;1.50;1.30;;;6.90;99.90;;;;;;5109827;28;20853;-47
2023/01/04 11:56:17;;;;;;;1.53;1.13;;;6.90;99.90;;;;;;5110571;28;20515;-47
2023/01/04 11:58:45;;;;;;;1.73;1.53;;;7.00;99.90;;;;;;5110772;28;20931;-47
2023/01/04 12:01:30;;;;;;;1.43;1.17;;;7.00;99.90;;;;;;5110405;28;20501;-46
2023/01/04 12:03:58;;;;;;;1.67;0.97;;;6.90;99.90;;;;;;5109976;28;20510;-48
2023/01/04 12:06:33;;;;;;;2.20;0.93;;;6.70;99.90;;;;;;5110265;28;20883;-47
2023/01/04 12:09:00;;;;;;;3.67;1.40;;;6.60;99.90;;;;;;5110918;28;20470;-48
2023/01/04 12:11:30;;;;;;;1.57;1.27;;;6.60;99.90;;;;;;5109719;28;20514;-48
2023/01/04 12:13:59;;;;;;;2.10;1.30;;;6.50;99.90;;;;;;5109575;28;20878;-47
2023/01/04 12:16:43;;;;;;;2.40;1.40;;;6.60;99.90;;;;;;5109081;28;20450;-50
2023/01/04 12:19:14;;;;;;;1.20;1.07;;;6.60;99.90;;;;;;5109167;28;20525;-49
2023/01/04 12:21:45;;;;;;;1.87;1.20;;;6.60;99.90;;;;;;5108903;28;20451;-48
2023/01/04 12:24:18;;;;;;;2.07;1.30;;;6.60;99.90;;;;;;5107659;28;20931;-49
2023/01/04 12:26:45;;;;;;;1.43;0.90;;;6.70;99.90;;;;;;5108491;28;20457;-47
2023/01/04 12:29:32;;;;;;;2.00;1.30;;;6.70;99.90;;;;;;5108838;28;20487;-48
2023/01/04 12:32:28;;;;;;;1.70;1.57;;;6.80;99.90;;;;;;5110015;28;20516;-48
2023/01/04 12:34:56;;;;;;;1.53;1.07;;;6.90;99.90;;;;;;5109216;28;20534;-48
2023/01/04 12:37:48;;;;;;;1.57;1.23;;;6.90;99.90;;;;;;5107803;28;20813;-48
2023/01/04 12:40:52;;;;;;;1.83;1.13;;;6.90;99.90;;;;;;5109756;28;21015;-44
2023/01/04 12:43:24;;;;;;;1.83;1.30;;;6.90;99.90;;;;;;5108639;28;20560;-49
2023/01/04 12:49:50;;;;;;;1.17;0.90;;;7.00;99.90;;;;;;5109857;28;20414;-45
2023/01/04 12:52:39;;;;;;;8.37;5.20;;;6.90;99.90;;;;;;5109954;28;20443;-48
2023/01/04 12:55:47;;;;;;;9.70;6.70;;;6.90;99.90;;;;;;5107615;28;20466;-50
2023/01/04 12:58:41;;;;;;;2.37;1.97;;;6.90;99.90;;;;;;5108666;28;20546;-45
2023/01/04 13:01:24;;;;;;;2.20;1.50;;;6.80;99.90;;;;;;5109680;28;20470;-48
2023/01/04 13:03:57;;;;;;;1.80;1.47;;;6.80;99.90;;;;;;5106864;28;20565;-48
2023/01/04 13:06:26;;;;;;;2.90;1.83;;;6.90;99.90;;;;;;5109445;28;20443;-48
2023/01/04 13:08:53;;;;;;;2.20;1.80;;;6.90;99.90;;;;;;5111185;28;20442;-48
2023/01/04 13:11:41;;;;;;;1.47;1.13;;;7.00;99.90;;;;;;5113240;28;20478;-47
2023/01/04 13:14:14;;;;;;;2.00;1.40;;;7.00;99.90;;;;;;5112767;28;20482;-47
2023/01/04 13:16:46;;;;;;;2.67;1.87;;;7.10;99.90;;;;;;5113490;28;21020;-48
2023/01/04 13:19:21;;;;;;;2.50;2.30;;;7.10;99.90;;;;;;5113845;28;20478;-48
2023/01/04 13:21:49;;;;;;;2.00;1.60;;;7.10;99.90;;;;;;5113632;27;20477;-48
2023/01/04 13:24:22;;;;;;;2.40;2.00;;;7.10;99.90;;;;;;5112332;28;20578;-47
2023/01/04 13:26:50;;;;;;;4.87;2.00;;;7.10;99.90;;;;;;5113579;27;20447;-47
2023/01/04 13:29:21;;;;;;;3.03;2.07;;;7.10;99.90;;;;;;5113302;28;20493;-48
2023/01/04 13:31:54;;;;;;;3.23;2.33;;;7.10;99.90;;;;;;5113469;28;20551;-50
2023/01/04 13:34:31;;;;;;;5.00;1.80;;;7.20;99.90;;;;;;5112416;28;20931;-48
2023/01/04 13:37:07;;;;;;;2.60;1.60;;;7.20;99.90;;;;;;5113031;28;20443;-48
2023/01/04 13:39:34;;;;;;;3.00;2.13;;;7.10;99.90;;;;;;5112898;28;20858;-48
2023/01/04 13:42:02;;;;;;;3.20;2.90;;;7.10;99.90;;;;;;5113361;28;20564;-48
2023/01/04 13:45:11;;;;;;;4.27;3.70;;;7.10;99.90;;;;;;5111820;28;20509;-48
2023/01/04 13:47:41;;;;;;;6.27;4.53;;;7.10;99.90;;;;;;5105133;28;20481;-48
2023/01/04 13:50:26;;;;;;;6.03;4.40;;;7.10;99.90;;;;;;5113326;28;20525;-48
2023/01/04 13:52:53;;;;;;;6.03;4.30;;;7.20;99.90;;;;;;5112299;28;20521;-47
2023/01/04 13:55:23;;;;;;;3.53;3.10;;;7.00;99.90;;;;;;5112382;28;20538;-49
2023/01/04 13:57:54;;;;;;;3.73;3.03;;;7.00;99.90;;;;;;5113034;28;20892;-51
2023/01/04 14:00:22;;;;;;;2.63;2.43;;;7.00;99.90;;;;;;5112710;28;20470;-48